This is the latest recevied weather packets stored in our database for station/object N2KI-13. If no packets are shown the sender has not sent any weather packets the latest 10 day(s).
| Time | Temp. | Humidity | Pressure | Rain* | Wind** | Luminosity | Snow |
|---|---|---|---|---|---|---|---|
| 1777278904 | 3.33° C | 89% | 1022.7 hPa | 0 mm | - | - | - |
| 1777278603 | 3.33° C | 89% | 1022.7 hPa | 0 mm | - | - | - |
| 1777278304 | 3.33° C | 89% | 1022.7 hPa | 0 mm | - | - | - |
| 1777277404 | 3.33° C | 89% | 1022.6 hPa | 0 mm | - | - | - |
| 1777276204 | 3.33° C | 88% | 1022.7 hPa | 0 mm | - | - | - |
| 1777275605 | 3.33° C | 88% | 1022.7 hPa | 0 mm | - | - | - |
| 1777275304 | 3.89° C | 88% | 1022.7 hPa | 0 mm | - | - | - |
| 1777274103 | 3.89° C | 88% | 1022.5 hPa | 0 mm | - | - | - |
| 1777272603 | 3.89° C | 87% | 1022.3 hPa | 0 mm | - | - | - |
| 1777269604 | 4.44° C | 87% | 1022.2 hPa | 0 mm | - | - | - |
| 1777269004 | 4.44° C | 87% | 1022.1 hPa | 0 mm | - | - | - |
| 1777266904 | 5° C | 86% | 1022.3 hPa | 0 mm | - | - | - |
| 1777264805 | 5.56° C | 85% | 1022.1 hPa | 0 mm | - | - | - |
| 1777264205 | 6.11° C | 84% | 1022.2 hPa | 0 mm | - | - | - |
| 1777261204 | 7.22° C | 82% | 1022.1 hPa | 0 mm | - | - | - |
| 1777260004 | 7.22° C | 81% | 1022 hPa | 0 mm | - | - | - |
| 1777256405 | 9.44° C | 78% | 1021.7 hPa | 0 mm | - | - | - |
| 1777254904 | 10° C | 74% | 1021.5 hPa | 0 mm | - | - | - |
| 1777254304 | 10.56° C | 73% | 1021.2 hPa | 0 mm | - | - | - |
| 1777253404 | 11.11° C | 70% | 1021.1 hPa | 0 mm | - | - | - |
| 1777252804 | 11.11° C | 71% | 1021 hPa | 0 mm | - | - | - |
| 1777251005 | 12.22° C | 68% | 1020.6 hPa | 0 mm | - | - | - |
| 1777250704 | 12.22° C | 66% | 1020.6 hPa | 0 mm | - | - | - |
| 1777246503 | 14.44° C | 59% | 1019.6 hPa | 0 mm | - | - | - |
| 1777246204 | 15° C | 59% | 1019.5 hPa | 0 mm | - | - | - |
* Rain latest hour (hover to see other rain measurements)
** Current wind speed in m/s (hover to see current wind gust speed)